»·PEaware :: AAR304 KLAX-KSFO

AAR304 :: KLAX-KSFO

FLIGHT INFORMATION

Flight Status: Arrived
Operator:
Asiana Airlines
More flights by this operator :: More flights under this callsign
Pilot: Zachary Cozens (8151)
Aircraft: BOEING 777-200
(B772)
More flights by this aircraft type
Origin: KLAX Los Angeles Intl
United States
Destination: KSFO San Francisco Intl
United States
More flights between these airports :: More routes between these airports
Route: +FIXIT2 RZS SERFR SERFR1
File this flight plan on PilotEdge
Remarks:
Altitude:
(Current/Filed)
34,000ft
Speed:
(Current/Filed)
450kts
Departed: 12-Nov-15 08:15 PM
Arrived: 12-Nov-15 09:09 PM
Distance/Time
Traveled:
294nm/0:53
Distance/Time
To Go:
Arrived

Flight Plot

Page will automatically refresh every two minutes.


Map Options




Map Legend


Flown Route
Filed Route
Departure Airport
Arrival Airport
Navaid (VOR, NDB)
Fix

Horizontal Profiles

Position Reports

Time Latitude Longitude Heading Altitude Ground
Speed
12-Nov-15 19:40 33.941032 -118.405140 85 143ft 0kts
12-Nov-15 19:41 33.941032 -118.405140 85 143ft 0kts
12-Nov-15 19:42 33.941032 -118.405140 85 143ft 0kts
12-Nov-15 19:43 33.941032 -118.405140 85 142ft 0kts
12-Nov-15 19:44 33.941032 -118.405140 85 142ft 0kts
12-Nov-15 19:45 33.941032 -118.405140 85 142ft 0kts
12-Nov-15 19:46 33.941032 -118.405140 85 142ft 0kts
12-Nov-15 19:47 33.941032 -118.405140 85 142ft 0kts
12-Nov-15 19:48 33.941032 -118.405140 85 142ft 0kts
12-Nov-15 19:49 33.941032 -118.405140 85 142ft 0kts
12-Nov-15 19:50 33.941032 -118.405140 85 142ft 0kts
12-Nov-15 19:51 33.941032 -118.405140 85 142ft 0kts
12-Nov-15 19:52 33.941032 -118.405140 85 142ft 0kts
12-Nov-15 19:53 33.941032 -118.405140 85 142ft 0kts
12-Nov-15 19:54 33.941032 -118.405140 85 142ft 0kts
12-Nov-15 19:55 33.941024 -118.405307 92 142ft 2kts
12-Nov-15 19:56 33.941530 -118.405679 173 142ft 2kts
12-Nov-15 19:57 33.941559 -118.405683 174 142ft 0kts
12-Nov-15 19:58 33.941559 -118.405683 174 142ft 0kts
12-Nov-15 19:59 33.941559 -118.405683 174 142ft 0kts
12-Nov-15 20:00 33.941559 -118.405683 174 142ft 0kts
12-Nov-15 20:01 33.941559 -118.405683 174 142ft 0kts
12-Nov-15 20:02 33.941559 -118.405683 174 142ft 0kts
12-Nov-15 20:03 33.940493 -118.405547 173 142ft 9kts
12-Nov-15 20:04 33.939262 -118.403350 82 142ft 11kts
12-Nov-15 20:05 33.939700 -118.399005 82 142ft 17kts
12-Nov-15 20:06 33.940206 -118.394024 83 142ft 17kts
12-Nov-15 20:07 33.940652 -118.388874 82 142ft 15kts
12-Nov-15 20:08 33.941090 -118.384632 82 142ft 13kts
12-Nov-15 20:09 33.940718 -118.381038 85 142ft 6kts
12-Nov-15 20:10 33.940712 -118.380859 100 142ft 0kts
12-Nov-15 20:11 33.939874 -118.380377 242 142ft 7kts
12-Nov-15 20:12 33.939771 -118.380864 262 142ft 0kts
12-Nov-15 20:13 33.939095 -118.387342 262 142ft 108kts
12-Nov-15 20:14 33.932751 -118.450441 263 2507ft 230kts
12-Nov-15 20:15 33.926197 -118.527366 264 5821ft 260kts
12-Nov-15 20:16 33.918973 -118.613620 264 9634ft 270kts
12-Nov-15 20:17 33.916732 -118.705134 269 12872ft 284kts
12-Nov-15 20:18 33.915315 -118.800693 269 15810ft 297kts
12-Nov-15 20:19 33.929593 -118.896725 303 18336ft 309kts
12-Nov-15 20:20 33.981797 -118.981329 330 20487ft 331kts
12-Nov-15 20:21 34.070817 -119.000872 353 22786ft 342kts
12-Nov-15 20:22 34.155310 -119.037876 312 24825ft 355kts
12-Nov-15 20:23 34.205107 -119.137325 301 26866ft 367kts
12-Nov-15 20:24 34.256946 -119.243449 300 28791ft 377kts
12-Nov-15 20:25 34.310243 -119.353276 300 30535ft 388kts
12-Nov-15 20:26 34.364769 -119.467097 300 32230ft 397kts
12-Nov-15 20:27 34.420042 -119.582901 300 33760ft 406kts
12-Nov-15 20:28 34.476421 -119.701423 300 34061ft 409kts
12-Nov-15 20:29 34.544153 -119.808209 317 34072ft 409kts
12-Nov-15 20:30 34.626337 -119.898446 317 34068ft 409kts
12-Nov-15 20:31 34.710452 -119.990480 317 34071ft 410kts
12-Nov-15 20:32 34.794361 -120.082520 317 34072ft 410kts
12-Nov-15 20:33 34.877816 -120.173741 317 34074ft 412kts
12-Nov-15 20:34 34.964348 -120.269104 317 34087ft 443kts
12-Nov-15 20:35 35.059111 -120.373957 317 34087ft 483kts
12-Nov-15 20:36 35.158349 -120.484150 317 34086ft 485kts
12-Nov-15 20:37 35.258037 -120.595246 317 34099ft 491kts
12-Nov-15 20:38 35.357243 -120.706184 317 34108ft 485kts
12-Nov-15 20:39 35.456081 -120.817074 317 34140ft 485kts
12-Nov-15 20:40 35.561787 -120.913597 324 34172ft 479kts
12-Nov-15 20:41 35.667043 -121.007180 327 34178ft 482kts
12-Nov-15 20:42 35.775653 -121.103500 327 34176ft 488kts
12-Nov-15 20:43 35.885252 -121.200512 327 34173ft 488kts
12-Nov-15 20:44 35.993829 -121.297656 327 34146ft 478kts
12-Nov-15 20:45 36.096648 -121.386750 331 32842ft 447kts
12-Nov-15 20:46 36.199296 -121.466757 330 30695ft 438kts
12-Nov-15 20:47 36.296034 -121.542508 330 27412ft 408kts
12-Nov-15 20:48 36.389566 -121.615962 330 24227ft 390kts
12-Nov-15 20:49 36.477726 -121.685383 329 21044ft 371kts
12-Nov-15 20:50 36.535714 -121.760515 316 20222ft 373kts
12-Nov-15 20:51 36.622031 -121.809522 335 18957ft 359kts
12-Nov-15 20:52 36.721773 -121.879691 330 16858ft 351kts
12-Nov-15 20:53 36.796470 -121.909666 347 15050ft 340kts
12-Nov-15 20:54 36.886751 -121.934957 348 12860ft 330kts
12-Nov-15 20:55 36.973193 -121.961592 342 10694ft 320kts
12-Nov-15 20:56 37.051089 -121.992002 343 8910ft 274kts
12-Nov-15 20:57 37.122131 -122.019776 343 7667ft 272kts
12-Nov-15 20:58 37.192274 -122.047257 343 6620ft 264kts
12-Nov-15 20:59 37.257873 -122.073002 343 5996ft 254kts
12-Nov-15 21:00 37.323550 -122.098822 343 5975ft 257kts
12-Nov-15 21:01 37.390470 -122.124737 342 4840ft 259kts
12-Nov-15 21:02 37.455758 -122.150393 342 4004ft 240kts
12-Nov-15 21:03 37.520063 -122.169360 341 4000ft 238kts
12-Nov-15 21:04 37.556751 -122.227880 300 3991ft 222kts
12-Nov-15 21:05 37.586888 -122.299374 297 1896ft 238kts
12-Nov-15 21:06 37.613756 -122.363306 296 103ft 157kts
12-Nov-15 21:07 37.624069 -122.387964 296 31ft 14kts
12-Nov-15 21:08 37.622350 -122.390606 242 30ft 7kts
12-Nov-15 21:09 37.621549 -122.390509 163 30ft 0kts

Navigation Log

Ident Type
1. KLAX Airport
2. RZS Navaid
3. KSFO Airport